Time;durP1;ratioP1;P1;durP2;ratioP2;P2;SDS_P1;SDS_P2;PMS_P1;PMS_P2;Temp;Humidity;BMP_temperature;BMP_pressure;BME280_temperature;BME280_humidity;BME280_pressure;Samples;Min_cycle;Max_cycle;Signal;HPM_P1;HPM_P2
2023/01/03 10:59:36;;;;;;;5.13;3.53;;;;;;;1.93;70.55;98730.84;4934147;29;20058;-78
2023/01/03 11:02:13;;;;;;;6.35;3.67;;;;;;;1.86;70.15;98731.63;4902381;29;20052;-77
2023/01/03 11:04:42;;;;;;;4.88;3.25;;;;;;;1.80;69.64;98722.19;4919412;29;20048;-77
2023/01/03 11:07:12;;;;;;;4.90;3.30;;;;;;;1.94;70.60;98706.03;4916591;29;20036;-77
2023/01/03 11:09:57;;;;;;;7.00;4.07;;;;;;;2.07;70.88;98707.00;4900923;29;20091;-77
2023/01/03 11:12:35;;;;;;;6.40;4.20;;;;;;;2.09;70.69;98708.75;4934392;29;20112;-76
2023/01/03 11:15:31;;;;;;;5.60;3.60;;;;;;;2.20;70.92;98701.13;4915978;29;20063;-74
2023/01/03 11:18:01;;;;;;;8.45;3.90;;;;;;;2.32;70.73;98715.75;4916040;29;20040;-75
2023/01/03 11:20:51;;;;;;;6.03;3.92;;;;;;;2.48;70.83;98709.00;4916374;29;20541;-75
2023/01/03 11:23:50;;;;;;;7.03;3.78;;;;;;;2.50;70.78;98668.78;4917040;29;20047;-76
2023/01/03 11:26:58;;;;;;;4.18;3.20;;;;;;;2.52;70.72;98640.56;4916267;29;20549;-77
2023/01/03 11:29:56;;;;;;;5.35;2.90;;;;;;;2.82;70.53;98685.22;4901817;29;20063;-76
2023/01/03 11:32:41;;;;;;;5.88;3.42;;;;;;;2.68;69.92;98698.88;4900431;29;20064;-77
2023/01/03 11:35:35;;;;;;;5.72;3.78;;;;;;;2.67;70.36;98689.44;4922830;29;20048;-75
2023/01/03 11:38:03;;;;;;;5.78;3.83;;;;;;;2.87;70.96;98683.53;4919131;29;20068;-75
2023/01/03 11:40:55;;;;;;;6.15;3.95;;;;;;;2.95;70.86;98688.69;4900140;29;20111;-74
2023/01/03 11:43:45;;;;;;;5.95;3.88;;;;;;;3.00;70.47;98675.00;4916692;29;20036;-75
2023/01/03 11:46:18;;;;;;;6.07;4.07;;;;;;;3.06;70.00;98674.19;4915199;29;20052;-76
2023/01/03 11:49:13;;;;;;;5.35;3.58;;;;;;;3.13;70.53;98663.06;4915484;29;20123;-76
2023/01/03 11:52:06;;;;;;;9.80;3.90;;;;;;;3.19;70.06;98663.94;4915465;29;20051;-76
2023/01/03 11:55:02;;;;;;;10.32;4.38;;;;;;;3.12;69.69;98661.34;4884180;29;20044;-76
2023/01/03 11:57:53;;;;;;;6.97;4.03;;;;;;;3.12;70.22;98655.34;4899749;29;20047;-77
2023/01/03 12:00:31;;;;;;;8.27;4.25;;;;;;;3.17;69.97;98656.22;4899871;29;20055;-77
2023/01/03 12:03:25;;;;;;;9.88;5.00;;;;;;;3.18;69.98;98652.81;4918579;29;20058;-75
2023/01/03 12:06:03;;;;;;;8.90;5.25;;;;;;;3.10;70.00;98628.78;4901651;29;20095;-78
2023/01/03 12:08:54;;;;;;;9.82;5.65;;;;;;;3.23;70.30;98645.09;4897337;29;20048;-77
2023/01/03 12:11:34;;;;;;;11.98;5.18;;;;;;;3.23;70.58;98637.38;4937873;29;20055;-79
2023/01/03 12:14:16;;;;;;;9.30;5.47;;;;;;;3.26;69.69;98635.66;4954906;29;20429;-77
2023/01/03 12:16:52;;;;;;;10.35;5.38;;;;;;;3.08;70.28;98610.81;4941581;29;20122;-78
2023/01/03 12:19:40;;;;;;;10.20;5.50;;;;;;;3.42;70.45;98651.16;4945896;29;20067;-76
2023/01/03 12:22:14;;;;;;;12.38;6.20;;;;;;;2.89;70.08;98542.19;4935260;29;20035;-78
2023/01/03 12:24:51;;;;;;;10.50;5.60;;;;;;;2.09;70.46;98410.19;4950857;29;20055;-77
2023/01/03 12:27:29;;;;;;;11.35;5.93;;;;;;;3.24;70.50;98590.25;4953374;29;20099;-77
2023/01/03 12:30:24;;;;;;;11.88;6.68;;;;;;;3.47;70.14;98618.56;4948843;29;20050;-78
2023/01/03 12:33:02;;;;;;;11.98;5.80;;;;;;;3.46;69.91;98628.00;4916845;29;20067;-79
2023/01/03 12:35:50;;;;;;;11.00;5.53;;;;;;;3.47;70.30;98609.13;4959748;29;20103;-78
2023/01/03 12:38:29;;;;;;;9.77;6.03;;;;;;;3.38;70.18;98598.00;4919639;29;20078;-78
2023/01/03 12:41:23;;;;;;;11.50;6.35;;;;;;;3.52;70.10;98621.16;4920047;29;20498;-78
2023/01/03 12:44:22;;;;;;;10.52;5.78;;;;;;;2.82;70.47;98497.66;4935140;29;20584;-78
2023/01/03 12:47:04;;;;;;;12.18;6.65;;;;;;;2.51;70.38;98439.38;4899018;29;20055;-78
2023/01/03 12:49:39;;;;;;;16.42;7.15;;;;;;;2.35;69.88;98392.25;4938634;29;20103;-77
2023/01/03 12:52:13;;;;;;;14.10;6.88;;;;;;;3.36;70.08;98569.69;4939480;29;20078;-77
2023/01/03 12:54:41;;;;;;;14.50;7.25;;;;;;;3.04;70.64;98538.78;4936631;29;20057;-78
2023/01/03 12:57:30;;;;;;;14.98;7.10;;;;;;;3.42;70.29;98599.72;4934699;29;20485;-76
2023/01/03 13:00:10;;;;;;;15.95;7.65;;;;;;;3.39;69.81;98615.97;4929687;29;20051;-78
2023/01/03 13:02:52;;;;;;;14.02;7.30;;;;;;;3.35;70.21;98611.69;4934042;29;20112;-76
2023/01/03 13:05:36;;;;;;;15.25;7.47;;;;;;;3.28;70.30;98610.81;4917824;29;20044;-77
2023/01/03 13:08:30;;;;;;;17.77;9.07;;;;;;;3.25;70.63;98612.53;4931045;29;20048;-77
2023/01/03 13:11:22;;;;;;;22.23;11.13;;;;;;;3.25;70.81;98630.53;4920572;29;20063;-77
2023/01/03 13:13:54;;;;;;;32.40;12.23;;;;;;;3.23;70.80;98609.94;4895883;29;20055;-79
2023/01/03 13:16:44;;;;;;;27.42;11.63;;;;;;;3.18;70.77;98591.09;4934012;29;20518;-78
2023/01/03 13:19:20;;;;;;;29.38;11.82;;;;;;;3.33;71.00;98600.53;4901574;29;20532;-78
2023/01/03 13:21:52;;;;;;;28.15;12.05;;;;;;;3.36;71.43;98604.84;4933957;29;20138;-77
2023/01/03 13:24:44;;;;;;;26.90;12.50;;;;;;;3.36;71.00;98605.69;4933588;29;20080;-78
2023/01/03 13:27:17;;;;;;;26.05;12.93;;;;;;;3.38;70.71;98610.84;4933768;29;20130;-79
2023/01/03 13:29:55;;;;;;;35.90;14.43;;;;;;;3.22;71.33;98591.97;4934172;29;20078;-78
2023/01/03 13:32:22;;;;;;;25.73;12.88;;;;;;;3.36;71.49;98604.84;4933629;29;20044;-78
2023/01/03 13:35:14;;;;;;;25.77;12.43;;;;;;;3.39;71.56;98612.56;4937772;29;20046;-79
2023/01/03 13:37:46;;;;;;;25.33;13.00;;;;;;;3.42;71.23;98613.41;4915878;29;20162;-75
2023/01/03 13:40:12;;;;;;;23.00;11.10;;;;;;;3.44;72.13;98614.28;4922645;29;20043;-77
2023/01/03 13:42:41;;;;;;;23.27;10.52;;;;;;;3.50;71.58;98622.88;4922353;29;20050;-76
2023/01/03 13:45:10;;;;;;;19.77;10.25;;;;;;;3.55;71.45;98614.28;4922782;29;20039;-80
2023/01/03 13:47:41;;;;;;;23.92;10.95;;;;;;;3.59;72.09;98615.13;4941115;29;20039;-77
2023/01/03 13:50:37;;;;;;;24.15;11.10;;;;;;;3.69;71.57;98627.16;4944183;29;20043;-78
2023/01/03 13:53:09;;;;;;;20.75;10.45;;;;;;;3.72;71.62;98624.59;4933254;29;20074;-80
2023/01/03 13:55:43;;;;;;;18.45;9.68;;;;;;;3.65;72.97;98607.44;4945465;29;20046;-79
2023/01/03 13:58:31;;;;;;;16.42;8.05;;;;;;;3.84;72.63;98623.72;4946696;29;20051;-78
2023/01/03 14:01:06;;;;;;;11.95;7.35;;;;;;;3.74;72.62;98596.28;4948311;29;20063;-79
2023/01/03 14:04:13;;;;;;;23.63;13.55;;;;;;;4.06;72.76;98626.28;4930812;29;20078;-77
2023/01/03 14:07:29;;;;;;;14.18;6.45;;;;;;;4.10;72.36;98614.25;4946282;29;20104;-79
2023/01/03 14:10:39;;;;;;;11.27;6.13;;;;;;;4.13;72.37;98603.97;4888441;29;20052;-75
2023/01/03 14:13:34;;;;;;;12.30;6.22;;;;;;;4.18;72.77;98608.22;4862904;29;20047;-77
2023/01/03 14:16:20;;;;;;;10.48;6.10;;;;;;;3.89;72.79;98562.78;4921399;29;20055;-77
2023/01/03 14:18:55;;;;;;;12.35;6.70;;;;;;;4.19;72.08;98604.78;4903384;29;20043;-78
2023/01/03 14:21:30;;;;;;;10.18;5.93;;;;;;;4.10;72.99;98579.06;4918055;29;20122;-78
2023/01/03 14:23:58;;;;;;;11.25;6.10;;;;;;;4.32;72.44;98605.63;4935423;29;20143;-78
2023/01/03 14:26:26;;;;;;;13.60;7.45;;;;;;;4.37;72.63;98601.31;4919218;29;20052;-81
2023/01/03 14:28:54;;;;;;;10.55;6.07;;;;;;;4.21;72.99;98563.56;4917887;29;20482;-78
2023/01/03 14:31:24;;;;;;;12.75;7.25;;;;;;;4.27;72.21;98578.19;4917709;29;20040;-77
2023/01/03 14:33:59;;;;;;;13.27;8.18;;;;;;;4.38;72.83;98594.44;4917587;29;20070;-80
2023/01/03 14:36:26;;;;;;;18.90;11.05;;;;;;;4.27;72.52;98575.59;4917444;29;20138;-78
2023/01/03 14:38:58;;;;;;;18.27;8.70;;;;;;;4.22;72.99;98568.75;4919313;29;20454;-78
2023/01/03 14:41:34;;;;;;;12.73;7.13;;;;;;;4.30;72.18;98585.91;4902549;29;20115;-80
2023/01/03 14:44:03;;;;;;;14.32;7.15;;;;;;;4.34;72.37;98592.72;4917914;29;20051;-78
2023/01/03 14:46:30;;;;;;;12.20;7.05;;;;;;;4.24;72.08;98591.06;4917217;29;20056;-79
2023/01/03 14:49:13;;;;;;;13.82;7.40;;;;;;;4.27;72.77;98598.78;4916951;29;20090;-80
2023/01/03 14:51:49;;;;;;;12.38;6.68;;;;;;;4.25;72.41;98603.91;4918346;29;20059;-78
2023/01/03 14:54:19;;;;;;;11.73;6.20;;;;;;;4.24;72.77;98601.34;4917358;29;20058;-80
2023/01/03 14:56:47;;;;;;;13.48;5.93;;;;;;;4.03;72.91;98570.50;4901167;29;20044;-78
2023/01/03 14:59:22;;;;;;;12.52;7.43;;;;;;;4.17;73.18;98577.34;4917396;29;20040;-77
2023/01/03 15:01:53;;;;;;;17.90;8.43;;;;;;;4.20;72.79;98574.75;4917456;29;20112;-78
2023/01/03 15:04:23;;;;;;;15.38;8.48;;;;;;;4.39;72.86;98600.47;4885960;29;20055;-76
2023/01/03 15:07:03;;;;;;;14.38;7.85;;;;;;;4.12;73.02;98566.19;4917268;29;20056;-79
2023/01/03 15:09:34;;;;;;;14.80;7.50;;;;;;;3.91;73.12;98561.06;4886769;29;20071;-79
2023/01/03 15:12:14;;;;;;;12.73;7.32;;;;;;;2.98;73.02;98385.44;4903412;29;20052;-79
2023/01/03 15:14:43;;;;;;;13.93;7.50;;;;;;;4.10;73.15;98567.91;4919688;29;20044;-81
2023/01/03 15:17:09;;;;;;;13.00;7.15;;;;;;;4.37;72.82;98606.47;4903569;29;20075;-78
2023/01/03 15:19:45;;;;;;;13.35;7.10;;;;;;;4.25;72.89;98582.47;4893350;29;20072;-79
2023/01/03 15:22:23;;;;;;;15.95;6.85;;;;;;;4.15;72.98;98563.63;4920085;29;20039;-79
2023/01/03 15:25:03;;;;;;;12.38;6.70;;;;;;;4.19;73.08;98573.91;4917539;29;20489;-80
2023/01/03 15:27:42;;;;;;;12.95;6.68;;;;;;;4.25;73.04;98585.03;4902536;29;20083;-78
2023/01/03 15:30:22;;;;;;;13.93;6.95;;;;;;;4.42;73.48;98605.59;4916591;29;20044;-80
2023/01/03 15:33:01;;;;;;;10.95;5.68;;;;;;;4.48;73.26;98615.88;4901309;29;20506;-80
2023/01/03 15:35:40;;;;;;;10.77;5.82;;;;;;;4.49;73.47;98597.84;4901353;29;20077;-80
2023/01/03 15:38:16;;;;;;;10.93;5.20;;;;;;;4.49;73.51;98590.13;4900263;29;20069;-79
2023/01/03 15:40:47;;;;;;;7.93;5.00;;;;;;;4.60;73.55;98590.09;4918418;29;20130;-79
2023/01/03 15:43:20;;;;;;;7.45;4.60;;;;;;;4.69;73.51;98594.34;4917273;29;20040;-78
2023/01/03 15:46:13;;;;;;;9.25;4.70;;;;;;;4.84;73.89;98601.16;4916814;29;20143;-76
2023/01/03 15:48:42;;;;;;;9.23;4.65;;;;;;;4.88;73.16;98602.81;4919467;29;20044;-77
2023/01/03 15:51:08;;;;;;;8.85;4.22;;;;;;;4.96;73.41;98616.53;4900351;29;20043;-76
2023/01/03 15:53:39;;;;;;;8.70;4.53;;;;;;;5.00;73.08;98603.66;4901826;29;20039;-79
2023/01/03 15:56:14;;;;;;;7.60;4.27;;;;;;;5.06;73.38;98606.19;4916445;29;20499;-78
2023/01/03 15:58:40;;;;;;;8.80;4.35;;;;;;;4.99;72.85;98582.16;4919010;29;20356;-78
2023/01/03 16:01:07;;;;;;;7.90;4.15;;;;;;;4.99;72.85;98582.16;4916097;29;20052;-80
2023/01/03 16:03:34;;;;;;;6.28;3.90;;;;;;;5.04;72.61;98593.28;4918023;29;20044;-77
2023/01/03 16:06:05;;;;;;;7.85;4.32;;;;;;;5.08;73.08;98581.22;4917538;29;20070;-78
2023/01/03 16:08:58;;;;;;;8.40;4.97;;;;;;;4.52;72.74;98494.75;4917706;29;20047;-76
2023/01/03 16:11:26;;;;;;;10.32;5.57;;;;;;;4.81;73.03;98549.63;4935942;29;20067;-76
2023/01/03 20:13:01;;;;;;;1.45;0.60;;;;;;;3.42;73.70;98414.53;5020809;23;20070;-78
2023/01/03 20:15:31;;;;;;;0.82;0.63;;;;;;;3.55;73.92;98423.94;4817508;29;20042;-77
2023/01/03 20:17:59;;;;;;;;;;;;;;;3.59;73.28;98417.91;4821765;29;20053;-78
2023/01/03 20:20:31;;;;;;;1.52;0.80;;;;;;;3.40;73.59;98375.94;4822400;29;19926;-77
2023/01/03 20:23:17;;;;;;;2.58;0.80;;;;;;;3.48;73.37;98391.34;4822323;29;20046;-76
2023/01/03 20:25:44;;;;;;;1.08;0.98;;;;;;;3.67;73.59;98409.31;4823155;29;20053;-76
2023/01/03 20:28:19;;;;;;;1.77;1.10;;;;;;;3.82;73.03;98426.41;4833029;29;20050;-75
2023/01/03 20:30:45;;;;;;;1.42;1.10;;;;;;;3.67;73.04;98387.00;4822950;29;20046;-76
2023/01/03 20:33:11;;;;;;;2.45;1.15;;;;;;;3.94;73.37;98435.81;4823265;29;20050;-77
2023/01/03 20:35:39;;;;;;;1.25;0.90;;;;;;;3.51;73.28;98360.47;4809793;29;20041;-84
2023/01/03 20:38:06;;;;;;;3.13;1.38;;;;;;;3.96;72.92;98428.94;4824014;29;20107;-77
2023/01/03 20:40:32;;;;;;;1.98;1.27;;;;;;;3.80;72.96;98404.97;4824155;29;20046;-76
2023/01/03 20:43:00;;;;;;;2.28;1.27;;;;;;;3.69;72.75;98398.16;4822962;29;20108;-80
2023/01/03 20:45:30;;;;;;;2.03;1.50;;;;;;;3.87;72.38;98443.53;4808968;29;20137;-79
2023/01/03 20:47:56;;;;;;;3.13;1.75;;;;;;;3.66;72.35;98399.88;4825090;29;20050;-80
2023/01/03 20:50:25;;;;;;;1.27;1.15;;;;;;;3.83;72.80;98420.41;4823656;29;20077;-79
2023/01/03 20:52:58;;;;;;;2.25;1.40;;;;;;;3.57;72.58;98369.88;4793608;29;20071;-81
2023/01/03 20:55:43;;;;;;;2.70;1.30;;;;;;;3.82;72.81;98396.41;4825010;29;20042;-75
2023/01/03 20:58:29;;;;;;;1.83;1.20;;;;;;;4.14;72.42;98435.72;4806736;29;20441;-77
2023/01/03 21:01:00;;;;;;;3.25;1.52;;;;;;;4.20;71.90;98438.25;4821892;29;20062;-78
2023/01/03 21:03:26;;;;;;;1.73;1.20;;;;;;;4.21;72.30;98443.41;4823103;29;20420;-78
2023/01/03 21:05:53;;;;;;;2.20;1.50;;;;;;;4.30;71.87;98439.94;4823305;29;20050;-76
2023/01/03 21:11:07;;;;;;;1.60;1.00;;;;;;;4.30;71.42;98429.63;4823752;29;20042;-78
2023/01/03 21:13:36;;;;;;;1.15;1.05;;;;;;;4.41;71.78;98442.47;4821498;29;20054;-77
2023/01/03 21:16:01;;;;;;;1.48;0.90;;;;;;;4.03;71.52;98392.03;4821842;29;20496;-77
2023/01/03 21:18:27;;;;;;;0.70;0.70;;;;;;;4.16;71.50;98408.25;4821904;29;20099;-78
2023/01/03 21:20:54;;;;;;;1.67;0.60;;;;;;;4.19;71.05;98428.84;4823013;29;20046;-76
2023/01/03 21:23:23;;;;;;;1.00;0.47;;;;;;;4.00;71.46;98426.34;4809068;29;20046;-79
2023/01/03 21:25:49;;;;;;;1.17;0.60;;;;;;;3.96;70.31;98419.50;4828540;29;20540;-76
2023/01/03 21:28:17;;;;;;;0.50;0.47;;;;;;;4.12;70.78;98450.34;4831289;29;20527;-80
2023/01/03 21:30:44;;;;;;;0.77;0.50;;;;;;;3.64;71.64;98383.59;4829039;29;20534;-75
2023/01/03 21:33:17;;;;;;;0.98;0.45;;;;;;;3.99;70.64;98445.22;4812130;29;20520;-76
2023/01/03 21:35:52;;;;;;;0.60;0.60;;;;;;;3.74;70.87;98414.44;4822273;29;20070;-76
2023/01/03 21:38:20;;;;;;;1.00;0.70;;;;;;;3.86;71.19;98444.41;4808916;29;20038;-75
2023/01/03 21:40:48;;;;;;;1.02;0.60;;;;;;;4.02;71.44;98457.25;4826608;29;20050;-77
2023/01/03 21:43:14;;;;;;;0.75;0.55;;;;;;;3.70;71.31;98394.72;4808896;29;20042;-75
2023/01/03 21:45:46;;;;;;;0.70;0.60;;;;;;;4.02;70.80;98445.22;4807046;29;20050;-77
2023/01/03 21:48:15;;;;;;;0.90;0.60;;;;;;;4.02;70.47;98445.22;4805615;29;20046;-76
2023/01/03 21:50:44;;;;;;;1.75;1.00;;;;;;;4.21;70.20;98469.16;4805689;29;20686;-75
2023/01/03 21:53:15;;;;;;;0.70;0.50;;;;;;;4.10;70.53;98459.78;4820476;29;20043;-73
2023/01/03 21:55:41;;;;;;;0.40;0.40;;;;;;;3.96;69.84;98449.53;4807951;29;20530;-76
2023/01/03 21:58:11;;;;;;;0.80;0.52;;;;;;;4.02;70.99;98467.53;4809521;29;20114;-73
2023/01/03 22:00:37;;;;;;;0.68;0.60;;;;;;;3.69;70.41;98433.31;4824625;29;20046;-76
2023/01/03 22:05:48;;;;;;;0.80;0.50;;;;;;;3.83;70.67;98466.72;4809610;29;20153;-79
2023/01/03 22:08:14;;;;;;;1.17;0.65;;;;;;;3.95;70.38;98489.88;4810848;29;20043;-80
2023/01/03 22:10:43;;;;;;;1.23;0.60;;;;;;;3.78;70.38;98461.59;4794818;29;20061;-80
2023/01/03 22:13:09;;;;;;;0.80;0.60;;;;;;;3.79;70.07;98472.75;4808918;29;20057;-76
2023/01/03 22:15:37;;;;;;;0.40;0.40;;;;;;;3.84;70.69;98483.88;4825529;29;20054;-78
2023/01/03 22:18:09;;;;;;;2.30;0.60;;;;;;;3.69;70.11;98448.75;4809642;29;20072;-75
2023/01/03 22:20:35;;;;;;;;;;;;;;;3.92;69.84;98497.59;4825023;29;20073;-77
2023/01/03 22:23:01;;;;;;;1.00;0.75;;;;;;;3.82;70.75;98480.44;4824599;29;20317;-76
2023/01/03 22:25:27;;;;;;;0.85;0.70;;;;;;;3.90;70.59;98484.72;4825543;29;20134;-73
2023/01/03 22:27:56;;;;;;;1.02;0.50;;;;;;;3.90;70.09;98489.88;4825344;29;20050;-74
2023/01/03 22:30:23;;;;;;;0.80;0.47;;;;;;;3.83;70.49;98495.03;4825562;29;20047;-75
2023/01/03 22:32:49;;;;;;;1.63;0.60;;;;;;;3.89;69.67;98495.88;4824162;29;20430;-76
2023/01/03 22:35:17;;;;;;;0.65;0.40;;;;;;;3.70;70.14;98474.50;4826074;29;20046;-74
2023/01/03 22:37:44;;;;;;;0.75;0.50;;;;;;;3.62;69.71;98478.78;4823921;29;20464;-76
2023/01/03 22:40:13;;;;;;;0.90;0.47;;;;;;;3.54;69.78;98483.06;4825347;29;20160;-77
2023/01/03 22:42:39;;;;;;;0.35;0.35;;;;;;;3.57;70.21;98507.09;4809196;29;20137;-77
2023/01/03 22:45:06;;;;;;;1.00;0.60;;;;;;;3.57;70.19;98504.53;4824319;29;20550;-76
2023/01/03 22:47:34;;;;;;;0.35;0.35;;;;;;;3.53;70.36;98500.25;4825336;29;20039;-78
2023/01/03 22:50:02;;;;;;;0.40;0.40;;;;;;;3.38;69.87;98485.69;4809868;29;20058;-74
2023/01/03 22:52:29;;;;;;;0.63;0.47;;;;;;;3.35;69.93;98500.25;4809290;29;20061;-75
2023/01/03 22:54:55;;;;;;;0.30;0.30;;;;;;;3.29;70.09;98496.81;4827647;29;20049;-76
2023/01/03 22:57:22;;;;;;;0.28;0.28;;;;;;;3.27;70.12;98502.84;4832110;29;20405;-75
2023/01/03 22:59:48;;;;;;;0.40;0.40;;;;;;;3.20;69.19;98504.53;4824920;29;20049;-77
2023/01/03 23:02:14;;;;;;;0.88;0.40;;;;;;;3.17;70.27;98497.69;4823222;29;20564;-74
2023/01/03 23:04:39;;;;;;;0.35;0.35;;;;;;;3.35;70.39;98520.84;4808668;29;20074;-76
2023/01/03 23:07:05;;;;;;;0.70;0.40;;;;;;;3.39;70.13;98512.25;4823414;29;20153;-74
2023/01/03 23:09:32;;;;;;;0.40;0.40;;;;;;;3.41;70.21;98511.41;4823306;29;20484;-76
2023/01/03 23:14:42;;;;;;;1.02;0.88;;;;;;;3.13;69.23;98515.69;4824862;29;20077;-76
2023/01/03 23:19:52;;;;;;;5.40;2.78;;;;;;;2.99;69.41;98521.66;4809200;29;20056;-75
2023/01/03 23:22:18;;;;;;;3.13;1.58;;;;;;;3.01;69.85;98531.94;4824496;29;20038;-78
2023/01/03 23:24:45;;;;;;;3.15;1.77;;;;;;;3.11;69.79;98533.66;4809486;29;20512;-76
2023/01/03 23:27:11;;;;;;;2.05;1.30;;;;;;;3.07;69.64;98526.81;4824411;29;20045;-77
2023/01/03 23:29:37;;;;;;;0.43;0.40;;;;;;;3.10;69.14;98520.81;4808100;29;20572;-76
2023/01/03 23:32:04;;;;;;;5.05;2.28;;;;;;;3.16;69.04;98538.81;4823981;29;20476;-73
2023/01/03 23:34:30;;;;;;;1.88;1.08;;;;;;;3.14;69.29;98532.81;4823210;29;20444;-77
2023/01/03 23:36:56;;;;;;;0.40;0.40;;;;;;;3.17;68.73;98537.97;4823095;29;20084;-75
2023/01/03 23:39:22;;;;;;;0.77;0.40;;;;;;;3.16;68.44;98543.97;4824034;29;20046;-75
2023/01/03 23:41:48;;;;;;;1.00;0.60;;;;;;;3.14;68.92;98540.53;4822937;29;20443;-76
2023/01/03 23:44:14;;;;;;;0.50;0.40;;;;;;;3.01;68.89;98522.50;4792729;29;20049;-76
2023/01/03 23:46:40;;;;;;;1.60;0.55;;;;;;;3.06;68.69;98527.69;4822920;29;20043;-74
2023/01/03 23:49:08;;;;;;;1.83;0.70;;;;;;;3.16;69.10;98549.13;4808067;29;20074;-76
2023/01/03 23:51:35;;;;;;;0.30;0.30;;;;;;;3.14;69.32;98548.25;4822813;29;20058;-77
2023/01/03 23:54:01;;;;;;;0.32;0.30;;;;;;;3.08;69.08;98543.09;4824400;29;20053;-74
2023/01/03 23:56:27;;;;;;;0.57;0.50;;;;;;;3.08;69.13;98543.09;4822870;29;20046;-76
2023/01/03 23:58:53;;;;;;;0.32;0.32;;;;;;;3.18;68.19;98557.69;4822549;29;20424;-76
